Time;durP1;ratioP1;P1;durP2;ratioP2;P2;SDS_P1;SDS_P2;PMS_P1;PMS_P2;Temp;Humidity;BMP_temperature;BMP_pressure;BME280_temperature;BME280_humidity;BME280_pressure;Samples;Min_cycle;Max_cycle;Signal;HPM_P1;HPM_P2
2022/01/04 00:00:05;;;;;;;6.87;4.20;;;;;;;3.19;100.00;96469.94;5069878;28;20044;-72
2022/01/04 00:02:42;;;;;;;8.97;4.23;;;;;;;3.23;100.00;96479.22;5071888;28;20481;-72
2022/01/04 00:05:10;;;;;;;8.77;4.70;;;;;;;3.25;100.00;96490.34;5071727;28;20037;-72
2022/01/04 00:07:37;;;;;;;8.30;4.27;;;;;;;3.29;100.00;96481.47;5071564;28;20139;-72
2022/01/04 00:10:08;;;;;;;8.80;3.90;;;;;;;3.25;100.00;96485.16;5071881;28;20036;-72
2022/01/04 00:15:19;;;;;;;9.23;5.07;;;;;;;3.27;100.00;96483.31;5071445;28;20040;-72
2022/01/04 00:17:48;;;;;;;10.73;5.50;;;;;;;3.27;100.00;96471.16;5069888;28;20056;-71
2022/01/04 00:20:15;;;;;;;11.50;5.83;;;;;;;3.31;100.00;96476.97;5071704;28;20473;-71
2022/01/04 00:22:42;;;;;;;14.73;6.80;;;;;;;3.31;100.00;96471.78;5071463;28;20044;-71
2022/01/04 00:25:10;;;;;;;10.80;6.27;;;;;;;3.31;100.00;96474.38;5071330;28;20132;-71
2022/01/04 00:27:37;;;;;;;12.70;6.20;;;;;;;3.34;100.00;96484.59;5071161;28;20420;-71
2022/01/04 00:30:06;;;;;;;10.37;6.33;;;;;;;3.34;100.00;96477.66;5071705;28;20040;-71
2022/01/04 00:32:33;;;;;;;11.37;6.63;;;;;;;3.35;100.00;96483.66;5071122;28;20052;-71
2022/01/04 00:35:01;;;;;;;14.67;6.40;;;;;;;3.35;100.00;96478.47;5071497;28;20094;-71
2022/01/04 00:37:28;;;;;;;17.23;6.97;;;;;;;3.33;100.00;96481.16;5070950;28;20527;-71
2022/01/04 00:39:55;;;;;;;13.70;7.10;;;;;;;3.33;100.00;96488.13;5072146;28;20052;-71
2022/01/04 00:42:22;;;;;;;14.90;9.27;;;;;;;3.29;100.00;96490.06;5072123;28;20063;-71
2022/01/04 00:44:49;;;;;;;18.20;8.23;;;;;;;3.28;100.00;96491.00;5071017;28;20040;-71
2022/01/04 00:47:19;;;;;;;20.60;9.67;;;;;;;3.27;100.00;96485.91;5071496;28;20040;-71
2022/01/04 00:49:45;;;;;;;14.53;8.13;;;;;;;3.29;100.00;96494.47;5071241;28;20048;-71
2022/01/04 00:52:16;;;;;;;13.97;7.57;;;;;;;3.32;100.00;96495.09;5071059;28;20045;-71
2022/01/04 00:54:45;;;;;;;14.03;7.67;;;;;;;3.31;100.00;96492.59;5071237;28;20045;-71
2022/01/04 00:57:12;;;;;;;14.87;7.03;;;;;;;3.33;100.00;96499.34;5070217;28;20071;-71
2022/01/04 00:59:39;;;;;;;17.47;7.60;;;;;;;3.32;100.00;96489.03;5070554;28;20036;-71
2022/01/04 01:02:06;;;;;;;19.23;8.03;;;;;;;3.31;100.00;96477.81;5069129;28;20051;-70
2022/01/04 01:04:34;;;;;;;11.10;5.60;;;;;;;3.11;100.00;96472.19;5070999;28;20136;-71
2022/01/04 01:07:01;;;;;;;12.80;6.03;;;;;;;2.98;100.00;96474.66;5070815;28;20485;-71
2022/01/04 01:09:33;;;;;;;12.93;6.73;;;;;;;2.97;100.00;96473.00;5071103;28;20040;-70
2022/01/04 01:12:00;;;;;;;13.93;6.20;;;;;;;2.97;100.00;96477.34;5071009;28;20040;-71
2022/01/04 01:14:27;;;;;;;10.17;5.03;;;;;;;2.93;100.00;96481.88;5066835;28;20044;-71
2022/01/04 01:16:54;;;;;;;15.97;5.20;;;;;;;2.91;100.00;96475.97;5070510;28;20063;-71
2022/01/04 01:19:21;;;;;;;16.43;6.67;;;;;;;2.88;100.00;96464.91;5070701;28;20045;-71
2022/01/04 01:21:48;;;;;;;18.47;6.50;;;;;;;2.92;100.00;96469.00;5070337;28;20076;-71
2022/01/04 01:24:15;;;;;;;22.40;6.60;;;;;;;2.92;100.00;96459.44;5071839;28;20075;-71
2022/01/04 01:26:45;;;;;;;14.27;6.40;;;;;;;2.93;100.00;96468.06;5072074;28;20093;-71
2022/01/04 01:29:12;;;;;;;12.10;5.40;;;;;;;2.91;100.00;96456.91;5070361;28;20066;-70
2022/01/04 01:31:39;;;;;;;15.23;6.17;;;;;;;2.88;100.00;96452.75;5070449;28;20048;-70
2022/01/04 01:34:06;;;;;;;12.23;4.77;;;;;;;2.82;100.00;96460.09;5070270;28;20106;-69
2022/01/04 01:36:33;;;;;;;11.73;5.30;;;;;;;2.79;100.00;96457.66;5070636;28;20489;-70
2022/01/04 01:39:00;;;;;;;16.60;6.30;;;;;;;2.79;100.00;96452.47;5071937;28;20578;-70
2022/01/04 01:41:27;;;;;;;17.13;6.10;;;;;;;2.86;100.00;96461.56;5070361;28;20047;-70
2022/01/04 01:43:56;;;;;;;14.80;5.70;;;;;;;2.89;100.00;96467.41;5070382;28;20466;-70
2022/01/04 01:46:23;;;;;;;10.80;5.17;;;;;;;2.89;100.00;96469.19;5069098;28;20068;-70
2022/01/04 01:48:50;;;;;;;13.27;5.07;;;;;;;2.86;100.00;96461.56;5070152;28;20040;-70
2022/01/04 01:51:17;;;;;;;14.37;4.97;;;;;;;2.82;100.00;96458.31;5069408;28;20544;-70
2022/01/04 01:53:45;;;;;;;9.83;4.43;;;;;;;2.84;100.00;96455.63;5070519;28;20288;-70
2022/01/04 01:56:12;;;;;;;12.97;4.30;;;;;;;2.87;100.00;96455.44;5069983;28;20080;-70
2022/01/04 01:58:39;;;;;;;11.30;6.33;;;;;;;2.88;100.00;96462.31;5070271;28;20033;-70
2022/01/04 02:01:09;;;;;;;10.80;4.33;;;;;;;2.93;100.00;96465.47;5070154;28;20041;-71
2022/01/04 02:03:36;;;;;;;9.30;4.53;;;;;;;2.94;100.00;96459.34;5069633;28;20361;-70
2022/01/04 02:06:04;;;;;;;12.53;4.87;;;;;;;2.94;100.00;96467.97;5070151;28;20481;-70
2022/01/04 02:08:31;;;;;;;8.90;5.27;;;;;;;2.99;100.00;96457.28;5070023;28;20075;-70
2022/01/04 02:10:59;;;;;;;13.87;4.90;;;;;;;3.03;100.00;96461.44;5070040;28;20040;-71
2022/01/04 02:13:27;;;;;;;8.03;3.97;;;;;;;3.02;100.00;96454.53;5069936;28;20064;-71
2022/01/04 02:15:55;;;;;;;11.93;4.57;;;;;;;3.02;100.00;96454.53;5070314;28;20274;-71
2022/01/04 02:18:25;;;;;;;9.30;3.57;;;;;;;3.07;100.00;96452.50;5068488;28;20063;-71
2022/01/04 02:20:53;;;;;;;11.00;4.23;;;;;;;3.11;100.00;96451.38;5069972;28;20515;-70
2022/01/04 02:23:20;;;;;;;6.73;4.90;;;;;;;3.08;100.00;96449.78;5069956;28;20060;-70
2022/01/04 02:25:48;;;;;;;11.33;3.70;;;;;;;3.10;100.00;96449.69;5069689;28;20128;-70
2022/01/04 02:28:20;;;;;;;10.87;4.57;;;;;;;3.13;100.00;96454.72;5069968;28;20474;-71
2022/01/04 02:30:48;;;;;;;14.17;4.63;;;;;;;3.17;100.00;96453.59;5069648;28;20040;-70
2022/01/04 02:33:15;;;;;;;13.33;5.27;;;;;;;3.18;100.00;96444.88;5069802;28;20041;-70
2022/01/04 02:35:42;;;;;;;9.33;3.70;;;;;;;3.21;100.00;96455.06;5068822;28;20128;-71
2022/01/04 02:38:10;;;;;;;9.23;4.07;;;;;;;3.23;100.00;96450.63;5071599;28;20037;-71
2022/01/04 02:40:37;;;;;;;14.27;5.57;;;;;;;3.21;100.00;96452.47;5071302;28;20486;-71
2022/01/04 02:43:05;;;;;;;10.93;3.97;;;;;;;3.21;100.00;96442.91;5052676;28;20139;-71
2022/01/04 02:45:32;;;;;;;8.17;4.47;;;;;;;3.24;100.00;96447.94;5069381;28;20382;-71
2022/01/04 02:47:59;;;;;;;12.97;4.53;;;;;;;3.28;100.00;96445.97;5069556;28;20040;-71
2022/01/04 02:50:28;;;;;;;11.80;4.37;;;;;;;3.27;100.00;96446.91;5069584;28;20128;-71
2022/01/04 02:52:55;;;;;;;11.83;4.10;;;;;;;3.27;100.00;96450.34;5069575;28;20045;-70
2022/01/04 07:50:26;;;;;;;25.10;9.57;;;;;;;4.10;100.00;96382.44;5067870;28;20066;-71
2022/01/04 07:52:55;;;;;;;24.97;11.80;;;;;;;4.28;100.00;96382.03;5068541;28;20090;-70
2022/01/04 07:55:22;;;;;;;20.90;9.57;;;;;;;4.24;100.00;96387.53;5071851;28;20028;-69
2022/01/04 07:57:49;;;;;;;25.57;11.97;;;;;;;4.26;100.00;96380.47;5072387;28;20102;-70
2022/01/04 08:00:16;;;;;;;26.40;10.43;;;;;;;4.39;100.00;96373.47;5073104;28;20041;-70
2022/01/04 08:02:44;;;;;;;16.17;7.17;;;;;;;4.57;100.00;96374.84;5071878;28;20047;-69
2022/01/04 08:05:12;;;;;;;28.17;14.10;;;;;;;4.87;100.00;96367.50;5072657;28;20737;-70
2022/01/04 08:07:40;;;;;;;16.90;9.23;;;;;;;5.01;100.00;96369.16;5072231;28;20048;-70
2022/01/04 08:10:09;;;;;;;14.60;7.87;;;;;;;4.95;100.00;96367.81;5071925;28;20072;-70
2022/01/04 08:12:37;;;;;;;16.97;8.83;;;;;;;4.77;100.00;96370.84;5072026;28;20044;-72
2022/01/04 08:15:04;;;;;;;12.63;6.07;;;;;;;4.79;100.00;96382.03;5071652;28;20040;-72
2022/01/04 08:17:31;;;;;;;23.80;11.93;;;;;;;4.86;100.00;96383.28;5072149;28;20044;-71
2022/01/04 08:19:58;;;;;;;18.10;9.07;;;;;;;4.75;100.00;96378.78;5071466;28;20150;-73
2022/01/04 08:22:31;;;;;;;17.87;8.83;;;;;;;4.72;100.00;96381.59;5071473;28;20036;-71
2022/01/04 08:24:58;;;;;;;16.48;6.85;;;;;;;4.80;100.00;96381.09;5070702;28;20086;-72
2022/01/04 08:27:26;;;;;;;16.53;8.70;;;;;;;4.85;100.00;96385.03;5071969;28;20412;-72
2022/01/04 08:29:54;;;;;;;21.87;9.67;;;;;;;4.98;100.00;96390.22;5071440;28;20049;-72
2022/01/04 08:32:21;;;;;;;17.63;8.73;;;;;;;5.00;100.00;96386.56;5070054;28;20044;-69
2022/01/04 08:34:50;;;;;;;15.83;6.70;;;;;;;4.96;100.00;96392.94;5070016;28;20048;-70
2022/01/04 08:37:18;;;;;;;17.80;7.17;;;;;;;5.00;100.00;96398.75;5071738;28;20096;-70
2022/01/04 08:39:45;;;;;;;15.57;6.83;;;;;;;4.91;100.00;96409.84;5070148;28;20132;-69
2022/01/04 08:42:13;;;;;;;15.47;7.17;;;;;;;4.93;100.00;96405.34;5071435;28;20037;-69
2022/01/04 08:44:42;;;;;;;11.10;5.47;;;;;;;4.93;100.00;96403.59;5070968;28;20043;-69
2022/01/04 08:47:10;;;;;;;14.47;8.40;;;;;;;5.01;100.00;96403.06;5070822;28;20472;-70
2022/01/04 08:49:38;;;;;;;21.80;10.10;;;;;;;5.11;100.00;96393.63;5071132;28;20047;-70
2022/01/04 08:52:07;;;;;;;16.43;5.97;;;;;;;5.03;100.00;96388.13;5072796;28;20524;-70
2022/01/04 08:54:36;;;;;;;12.43;6.57;;;;;;;4.81;100.00;96391.41;5071988;28;20075;-68
2022/01/04 08:57:04;;;;;;;10.70;6.87;;;;;;;4.73;100.00;96385.06;5071071;28;20045;-71
2022/01/04 08:59:33;;;;;;;14.00;6.80;;;;;;;4.75;100.00;96377.97;5070992;28;20060;-69
2022/01/04 09:02:01;;;;;;;16.10;6.73;;;;;;;4.83;100.00;96379.09;5070868;28;20447;-69
2022/01/04 09:04:28;;;;;;;10.57;6.00;;;;;;;4.74;100.00;96371.91;5071365;28;20041;-69
2022/01/04 09:06:55;;;;;;;15.17;7.03;;;;;;;4.70;100.00;96369.63;5070993;28;20035;-69
2022/01/04 09:09:22;;;;;;;14.63;7.07;;;;;;;4.62;100.00;96370.16;5071341;28;20048;-69
2022/01/04 09:11:49;;;;;;;12.47;6.27;;;;;;;4.55;100.00;96366.31;5070758;28;20139;-69
2022/01/04 09:14:25;;;;;;;14.40;7.77;;;;;;;4.51;100.00;96370.06;5070827;28;20127;-69
2022/01/04 09:19:39;;;;;;;25.07;17.30;;;;;;;4.46;100.00;96377.34;5070804;28;20109;-68
2022/01/04 09:22:07;;;;;;;14.73;6.67;;;;;;;4.68;100.00;96369.72;5070664;28;20044;-72
2022/01/04 09:24:34;;;;;;;11.37;5.97;;;;;;;4.82;100.00;96364.38;5070780;28;20538;-70
2022/01/04 09:27:05;;;;;;;19.50;7.97;;;;;;;4.73;100.00;96357.22;5067519;28;20045;-69
2022/01/04 09:29:33;;;;;;;15.33;6.13;;;;;;;4.82;100.00;96356.56;5069843;28;20560;-71
2022/01/04 09:32:01;;;;;;;18.37;8.07;;;;;;;4.93;100.00;96354.03;5070544;28;20044;-69
2022/01/04 09:34:29;;;;;;;15.87;6.93;;;;;;;4.76;100.00;96348.34;5068793;28;20040;-71
2022/01/04 09:36:57;;;;;;;14.53;8.00;;;;;;;4.84;100.00;96348.63;5070340;28;20151;-68
2022/01/04 09:39:25;;;;;;;13.70;7.13;;;;;;;4.82;100.00;96347.91;5069226;28;20056;-68
2022/01/04 09:41:55;;;;;;;12.30;6.27;;;;;;;4.83;100.00;96346.97;5071405;28;20071;-69
2022/01/04 09:44:25;;;;;;;14.83;6.23;;;;;;;4.84;100.00;96344.28;5070042;28;20040;-70
2022/01/04 09:46:52;;;;;;;14.40;6.63;;;;;;;4.80;100.00;96335.00;5069504;28;20059;-70
2022/01/04 09:49:20;;;;;;;12.13;6.00;;;;;;;4.72;100.00;96342.50;5069622;28;20032;-70
2022/01/04 09:51:48;;;;;;;19.87;7.27;;;;;;;4.61;100.00;96337.19;5068934;28;20425;-70
2022/01/04 09:54:21;;;;;;;17.50;6.70;;;;;;;4.60;100.00;96322.50;5068133;28;20135;-69
2022/01/04 09:56:49;;;;;;;13.77;6.78;;;;;;;4.71;100.00;96321.75;5069079;28;20131;-69
2022/01/04 09:59:16;;;;;;;11.83;5.33;;;;;;;4.89;100.00;96318.69;5069180;28;20055;-70
2022/01/04 10:01:45;;;;;;;7.60;4.33;;;;;;;5.04;100.00;96316.75;5069919;28;20044;-69
2022/01/04 10:04:13;;;;;;;7.87;4.77;;;;;;;5.02;100.00;96309.06;5069706;28;20064;-68
2022/01/04 10:06:41;;;;;;;12.23;4.47;;;;;;;5.02;100.00;96309.06;5069067;28;20047;-68
2022/01/04 10:09:11;;;;;;;10.93;5.23;;;;;;;5.18;100.00;96300.97;5069295;28;20137;-69
2022/01/04 10:11:43;;;;;;;11.50;5.50;;;;;;;5.20;100.00;96289.47;5068488;28;20044;-69
2022/01/04 10:14:27;;;;;;;8.50;4.17;;;;;;;5.21;100.00;96272.88;5069331;28;20048;-68
2022/01/04 10:16:56;;;;;;;10.93;5.50;;;;;;;5.21;100.00;96282.47;5068668;28;20083;-68
2022/01/04 10:19:31;;;;;;;10.90;5.20;;;;;;;5.36;100.00;96273.53;5068790;28;20132;-69
2022/01/04 10:22:20;;;;;;;15.43;6.53;;;;;;;5.43;100.00;96277.38;5069129;28;20132;-68
2022/01/04 10:25:08;;;;;;;16.33;7.47;;;;;;;5.44;100.00;96274.69;5069017;28;20049;-68
2022/01/04 10:27:39;;;;;;;9.47;4.87;;;;;;;5.57;100.00;96256.34;5068488;28;20060;-68
2022/01/04 10:30:20;;;;;;;15.43;8.33;;;;;;;5.51;100.00;96260.22;5067324;28;20058;-68
2022/01/04 10:32:50;;;;;;;13.23;5.90;;;;;;;5.44;100.00;96259.00;5068740;28;20123;-68
2022/01/04 10:35:29;;;;;;;13.73;7.37;;;;;;;5.37;100.00;96257.75;5069190;28;20064;-69
2022/01/04 10:37:58;;;;;;;12.27;7.17;;;;;;;5.51;100.00;96247.19;5068642;28;20044;-69
2022/01/04 10:40:26;;;;;;;12.97;5.10;;;;;;;5.58;100.00;96250.16;5068155;28;20036;-68
2022/01/04 10:42:55;;;;;;;6.43;3.87;;;;;;;5.56;100.00;96241.63;5067778;28;20052;-70
2022/01/04 10:45:29;;;;;;;11.30;5.00;;;;;;;5.53;100.00;96239.25;5068810;28;20040;-71
2022/01/04 10:48:09;;;;;;;10.73;5.40;;;;;;;5.57;100.00;96243.28;5068584;28;20423;-71
2022/01/04 10:50:37;;;;;;;18.53;6.30;;;;;;;5.58;100.00;96240.56;5068365;28;20051;-71
2022/01/04 10:53:06;;;;;;;13.67;4.43;;;;;;;5.61;100.00;96242.09;5068351;28;20143;-71
2022/01/04 10:55:34;;;;;;;7.63;3.83;;;;;;;5.48;100.00;96236.97;5068493;28;20124;-72
2022/01/04 10:58:04;;;;;;;7.93;4.27;;;;;;;5.40;100.00;96230.59;5068588;28;20062;-70
2022/01/04 11:00:32;;;;;;;7.93;3.93;;;;;;;5.44;100.00;96229.47;5068834;28;20478;-68
2022/01/04 11:03:02;;;;;;;10.93;4.23;;;;;;;5.36;100.00;96224.81;5069146;28;20049;-70
2022/01/04 11:05:29;;;;;;;11.70;4.63;;;;;;;5.27;100.00;96220.25;5068248;28;20481;-71
2022/01/04 11:07:59;;;;;;;11.83;3.60;;;;;;;5.14;100.00;96219.50;5067869;28;20040;-71
2022/01/04 11:10:28;;;;;;;12.10;5.20;;;;;;;5.02;100.00;96206.50;5067647;28;20068;-72
2022/01/04 11:12:58;;;;;;;19.20;4.73;;;;;;;4.99;100.00;96207.59;5069233;28;20048;-72
2022/01/04 11:15:27;;;;;;;14.83;4.43;;;;;;;4.98;100.00;96205.88;5069240;28;20044;-72
2022/01/04 11:17:56;;;;;;;12.73;5.17;;;;;;;5.03;100.00;96198.59;5068433;28;20477;-71
2022/01/04 11:20:24;;;;;;;9.23;4.13;;;;;;;5.10;100.00;96202.41;5069223;28;20493;-71
2022/01/04 11:22:52;;;;;;;11.73;3.80;;;;;;;5.12;100.00;96190.06;5066516;28;20068;-72
2022/01/04 11:25:21;;;;;;;10.07;4.03;;;;;;;5.18;100.00;96189.63;5071156;28;20044;-72
2022/01/04 11:27:49;;;;;;;9.30;3.57;;;;;;;5.31;100.00;96181.72;5072183;28;20033;-72
2022/01/04 11:30:22;;;;;;;6.37;3.33;;;;;;;5.43;100.00;96179.06;5073688;28;20037;-70
2022/01/04 11:32:55;;;;;;;5.03;2.47;;;;;;;5.50;100.00;96171.59;5072864;28;20106;-70
2022/01/04 11:35:24;;;;;;;8.10;2.22;;;;;;;5.67;100.00;96164.16;5072561;28;20047;-71
2022/01/04 11:37:53;;;;;;;4.07;2.63;;;;;;;5.96;100.00;96165.34;5072447;28;20501;-72
2022/01/04 11:40:26;;;;;;;3.07;1.90;;;;;;;6.07;100.00;96162.75;5072389;28;20462;-71
2022/01/04 11:42:54;;;;;;;4.20;2.37;;;;;;;6.05;100.00;96167.25;5072555;28;20068;-72
2022/01/04 11:45:42;;;;;;;2.03;1.77;;;;;;;6.03;100.00;96168.31;5072829;28;20076;-71
2022/01/04 11:48:31;;;;;;;4.13;1.83;;;;;;;6.03;100.00;96148.25;5071436;28;20044;-72
2022/01/04 11:51:00;;;;;;;2.63;1.77;;;;;;;6.06;100.00;96152.41;5071637;28;20517;-71
2022/01/04 11:53:28;;;;;;;2.70;1.80;;;;;;;6.11;100.00;96152.88;5072608;28;20131;-72
2022/01/04 11:55:57;;;;;;;2.83;1.70;;;;;;;6.15;100.00;96159.53;5074425;28;20512;-72
2022/01/04 11:58:27;;;;;;;5.03;2.27;;;;;;;6.16;100.00;96151.56;5073181;28;20453;-72
2022/01/04 12:01:01;;;;;;;3.30;2.10;;;;;;;6.10;100.00;96153.84;5072462;28;20059;-71
2022/01/04 12:03:41;;;;;;;6.27;2.80;;;;;;;6.04;100.00;96144.69;5070621;28;20405;-71
2022/01/04 12:06:09;;;;;;;3.73;2.60;;;;;;;5.98;100.00;96139.97;5070875;28;20048;-70
2022/01/04 12:08:39;;;;;;;3.33;2.50;;;;;;;5.87;100.00;96139.97;5064900;28;20041;-72
2022/01/04 12:11:20;;;;;;;5.53;3.70;;;;;;;5.71;100.00;96130.81;5071523;28;20124;-73
2022/01/04 12:13:50;;;;;;;6.17;4.03;;;;;;;5.63;100.00;96123.56;5071723;28;20422;-73
2022/01/04 12:16:31;;;;;;;5.57;3.53;;;;;;;5.55;100.00;96118.09;5070643;28;20054;-73
2022/01/04 12:19:01;;;;;;;4.80;2.60;;;;;;;5.45;100.00;96111.91;5071986;28;20052;-71
2022/01/04 12:21:50;;;;;;;5.27;2.90;;;;;;;5.48;100.00;96109.06;5072014;28;20147;-71
2022/01/04 12:24:26;;;;;;;7.27;4.00;;;;;;;5.56;100.00;96106.72;5071331;28;20094;-72
2022/01/04 12:27:10;;;;;;;6.97;3.30;;;;;;;5.53;100.00;96106.94;5071706;28;20036;-72
2022/01/04 12:29:37;;;;;;;4.43;2.13;;;;;;;5.47;100.00;96099.59;5070713;28;20041;-71
2022/01/04 12:32:08;;;;;;;6.40;3.00;;;;;;;5.46;100.00;96100.53;5071421;28;20044;-70
2022/01/04 12:35:07;;;;;;;8.90;3.43;;;;;;;5.50;100.00;96101.97;5070960;28;20036;-70
2022/01/04 12:37:38;;;;;;;12.67;4.23;;;;;;;5.46;100.00;96099.72;5071281;28;20068;-70
2022/01/04 12:40:06;;;;;;;4.87;2.60;;;;;;;5.31;100.00;96104.25;5071509;28;20041;-70
2022/01/04 12:42:33;;;;;;;4.80;2.73;;;;;;;5.21;100.00;96099.88;5071317;28;20478;-70
2022/01/04 12:45:01;;;;;;;4.97;2.80;;;;;;;5.16;100.00;96102.00;5071121;28;20044;-70
2022/01/04 12:47:29;;;;;;;5.50;2.80;;;;;;;5.16;100.00;96113.25;5070852;28;20500;-69
2022/01/04 12:50:01;;;;;;;4.20;3.00;;;;;;;5.14;100.00;96111.72;5071478;28;20055;-71
2022/01/04 12:52:31;;;;;;;8.45;3.25;;;;;;;5.13;100.00;96107.44;5071123;28;20040;-70
2022/01/04 12:54:58;;;;;;;5.13;2.70;;;;;;;5.08;100.00;96099.97;5070223;28;20449;-70
2022/01/04 12:57:26;;;;;;;5.87;2.90;;;;;;;5.00;100.00;96101.47;5070522;28;20124;-70
2022/01/04 12:59:54;;;;;;;3.43;2.67;;;;;;;5.01;100.00;96092.72;5072772;28;20236;-72
2022/01/04 13:02:24;;;;;;;6.37;2.77;;;;;;;4.96;100.00;96084.41;5071080;28;20768;-71
2022/01/04 13:04:53;;;;;;;5.57;3.70;;;;;;;4.94;100.00;96100.16;5072034;28;20489;-69
2022/01/04 13:07:23;;;;;;;4.27;2.47;;;;;;;4.97;100.00;96099.94;5071802;28;20072;-68
2022/01/04 13:09:56;;;;;;;4.47;2.67;;;;;;;4.96;100.00;96094.81;5071082;28;20139;-69
2022/01/04 13:12:26;;;;;;;5.20;2.85;;;;;;;4.94;100.00;96094.94;5070865;28;20119;-69
2022/01/04 13:14:54;;;;;;;6.70;3.53;;;;;;;4.90;100.00;96105.72;5070200;28;20033;-70
2022/01/04 13:17:22;;;;;;;3.23;2.40;;;;;;;4.87;100.00;96098.94;5070607;28;20047;-70
2022/01/04 13:19:50;;;;;;;7.17;2.50;;;;;;;4.85;100.00;96103.47;5070690;28;20537;-70
2022/01/04 13:22:19;;;;;;;4.30;2.73;;;;;;;4.75;100.00;96097.25;5070974;28;20120;-69
2022/01/04 13:24:49;;;;;;;4.47;1.83;;;;;;;4.70;100.00;96096.78;5070519;28;20113;-68
2022/01/04 13:27:34;;;;;;;7.40;2.53;;;;;;;4.65;100.00;96093.66;5071072;28;20045;-68
2022/01/04 13:30:15;;;;;;;3.70;2.50;;;;;;;4.61;100.00;96094.81;5067983;28;20060;-69
2022/01/04 13:32:45;;;;;;;6.93;2.70;;;;;;;4.56;100.00;96086.50;5070407;28;20120;-69
2022/01/04 13:35:18;;;;;;;6.80;2.50;;;;;;;4.50;100.00;96086.94;5070299;28;20071;-68
2022/01/04 13:37:48;;;;;;;3.22;2.00;;;;;;;4.45;100.00;96089.06;5068597;28;20056;-69
2022/01/04 13:40:15;;;;;;;2.50;2.10;;;;;;;4.42;100.00;96080.66;5070066;28;20044;-69
2022/01/04 13:42:45;;;;;;;2.87;2.17;;;;;;;4.35;100.00;96088.06;5070013;28;20032;-70
2022/01/04 13:45:16;;;;;;;2.97;1.80;;;;;;;4.27;100.00;96077.38;5070670;28;20462;-70
2022/01/04 13:47:45;;;;;;;3.27;2.20;;;;;;;4.24;100.00;96080.19;5068833;28;20074;-71
2022/01/04 13:50:16;;;;;;;9.80;6.67;;;;;;;4.20;100.00;96071.78;5070231;28;20047;-70
2022/01/04 13:52:55;;;;;;;4.83;2.90;;;;;;;4.16;100.00;96070.34;5069861;28;20052;-68
2022/01/04 13:55:22;;;;;;;4.50;2.67;;;;;;;4.11;100.00;96063.81;5071231;28;20033;-70
2022/01/04 13:57:50;;;;;;;3.90;2.70;;;;;;;4.10;100.00;96062.97;5070819;28;20071;-70
2022/01/04 14:00:34;;;;;;;4.27;2.50;;;;;;;4.07;100.00;96062.38;5070049;28;20421;-70
2022/01/04 14:03:02;;;;;;;7.07;3.40;;;;;;;4.01;100.00;96055.81;5069757;28;20051;-69
2022/01/04 14:05:36;;;;;;;6.40;3.87;;;;;;;4.01;100.00;96066.25;5068907;28;20123;-69
2022/01/04 14:08:05;;;;;;;6.73;3.97;;;;;;;3.98;100.00;96050.84;5071190;28;20033;-70
2022/01/04 14:10:46;;;;;;;7.03;3.47;;;;;;;3.98;100.00;96047.38;5069685;28;20040;-71
2022/01/04 14:13:31;;;;;;;9.53;3.77;;;;;;;3.96;100.00;96041.47;5069503;28;20470;-69
2022/01/04 14:16:09;;;;;;;7.70;4.13;;;;;;;3.94;100.00;96038.97;5069305;28;20417;-71
2022/01/04 14:18:36;;;;;;;7.80;3.30;;;;;;;3.90;100.00;96024.53;5068124;28;20374;-72
2022/01/04 14:21:04;;;;;;;6.23;3.03;;;;;;;3.91;100.00;96025.34;5069184;28;20044;-72
2022/01/04 14:23:35;;;;;;;5.10;3.07;;;;;;;3.91;100.00;96025.34;5068269;28;20131;-72
2022/01/04 14:26:05;;;;;;;6.37;3.20;;;;;;;3.91;100.00;96025.34;5069040;28;20056;-72
2022/01/04 14:28:34;;;;;;;5.70;3.23;;;;;;;3.89;100.00;96030.63;5068853;28;20416;-71
2022/01/04 14:31:01;;;;;;;8.37;3.67;;;;;;;3.88;100.00;96025.56;5068430;28;20189;-71
2022/01/04 14:33:28;;;;;;;8.80;3.43;;;;;;;3.89;100.00;96017.63;5068782;28;20045;-70
2022/01/04 14:35:56;;;;;;;6.97;4.03;;;;;;;3.90;100.00;96028.88;5068741;28;20386;-71
2022/01/04 14:38:23;;;;;;;4.17;2.70;;;;;;;3.91;100.00;96020.97;5068341;28;20068;-71
2022/01/04 14:40:51;;;;;;;6.27;3.73;;;;;;;3.89;100.00;96024.63;5068841;28;20132;-70
2022/01/04 14:43:18;;;;;;;5.60;3.43;;;;;;;3.89;100.00;96009.00;5068297;28;20066;-70
2022/01/04 14:45:46;;;;;;;7.30;3.27;;;;;;;3.83;100.00;96009.44;5068375;28;20044;-70
2022/01/04 14:48:17;;;;;;;7.50;3.30;;;;;;;3.79;100.00;96010.59;5067137;28;20587;-71
2022/01/04 14:50:44;;;;;;;8.20;5.43;;;;;;;3.77;100.00;96002.09;5068599;28;20106;-72
2022/01/04 14:53:11;;;;;;;7.13;3.83;;;;;;;3.74;100.00;95997.09;5068370;28;20385;-72
2022/01/04 14:55:38;;;;;;;6.10;3.30;;;;;;;3.68;100.00;95997.53;5068325;28;20044;-73
2022/01/04 14:58:05;;;;;;;6.73;3.43;;;;;;;3.67;100.00;96003.66;5068547;28;20110;-73
2022/01/04 15:00:33;;;;;;;6.87;4.40;;;;;;;3.64;100.00;95994.31;5072715;28;20396;-73
2022/01/04 15:03:02;;;;;;;11.63;7.00;;;;;;;3.64;100.00;95993.47;5072312;28;20127;-72
2022/01/04 15:05:29;;;;;;;9.07;3.93;;;;;;;3.63;100.00;95986.63;5071279;28;20049;-75
2022/01/04 15:07:56;;;;;;;8.00;3.60;;;;;;;3.60;100.00;95977.25;5070723;28;20111;-73
2022/01/04 15:10:23;;;;;;;6.17;3.73;;;;;;;3.57;100.00;95974.88;5071963;28;20500;-72
2022/01/04 15:12:50;;;;;;;9.40;4.03;;;;;;;3.57;100.00;95974.03;5072174;28;20404;-69
2022/01/04 15:15:17;;;;;;;6.70;4.00;;;;;;;3.56;100.00;95974.97;5072417;28;20131;-68
2022/01/04 15:17:44;;;;;;;9.33;3.93;;;;;;;3.55;100.00;95966.34;5069996;28;20540;-68
2022/01/04 15:20:13;;;;;;;7.73;4.57;;;;;;;3.53;100.00;95962.19;5072125;28;20044;-69
2022/01/04 15:22:40;;;;;;;14.33;5.70;;;;;;;3.55;100.00;95955.13;5071742;28;20117;-71
2022/01/04 15:25:09;;;;;;;5.37;3.70;;;;;;;3.52;100.00;95958.75;5072205;28;20098;-72
2022/01/04 15:27:37;;;;;;;10.33;4.53;;;;;;;3.47;100.00;95947.00;5070673;28;20742;-72
2022/01/04 15:30:06;;;;;;;10.23;5.13;;;;;;;3.46;100.00;95946.19;5070244;28;20127;-72
2022/01/04 15:32:33;;;;;;;9.67;5.50;;;;;;;3.43;100.00;95941.19;5072036;28;20060;-72
2022/01/04 15:35:02;;;;;;;7.50;3.83;;;;;;;3.44;100.00;95931.63;5071658;28;20127;-74
2022/01/04 15:37:31;;;;;;;13.23;6.00;;;;;;;3.41;100.00;95921.44;5071573;28;20045;-70
2022/01/04 15:39:58;;;;;;;9.40;5.67;;;;;;;3.39;100.00;95925.91;5071553;28;20155;-70
2022/01/04 15:42:27;;;;;;;9.03;5.87;;;;;;;3.33;100.00;95913.38;5071709;28;20389;-71
2022/01/04 15:44:55;;;;;;;9.83;5.63;;;;;;;3.32;100.00;95906.47;5072166;28;20094;-71
2022/01/04 15:47:22;;;;;;;9.13;5.80;;;;;;;3.34;100.00;95904.63;5071104;28;20048;-70
2022/01/04 15:49:51;;;;;;;10.83;6.27;;;;;;;3.36;100.00;95907.91;5072058;28;20127;-70
2022/01/04 15:52:18;;;;;;;9.63;6.13;;;;;;;3.34;100.00;95904.63;5070743;28;20056;-71
2022/01/04 15:54:47;;;;;;;9.33;5.20;;;;;;;3.32;100.00;95911.69;5071898;28;20052;-71
2022/01/04 15:57:14;;;;;;;11.80;6.27;;;;;;;3.33;100.00;95897.75;5071574;28;20040;-70
2022/01/04 15:59:41;;;;;;;14.47;7.00;;;;;;;3.37;100.00;95904.41;5070997;28;20036;-72
2022/01/04 16:02:08;;;;;;;11.40;5.80;;;;;;;3.35;100.00;95901.91;5069057;28;20055;-70
2022/01/04 16:04:35;;;;;;;9.57;5.90;;;;;;;3.33;100.00;95895.97;5071672;28;20547;-72
2022/01/04 16:07:03;;;;;;;10.37;5.10;;;;;;;3.26;100.00;95892.16;5071741;28;20059;-72
2022/01/04 16:09:30;;;;;;;10.50;6.03;;;;;;;3.29;100.00;95885.91;5071200;28;20054;-72
2022/01/04 16:11:59;;;;;;;12.17;6.47;;;;;;;3.31;100.00;95895.28;5070773;28;20409;-71
2022/01/04 16:14:26;;;;;;;12.20;7.13;;;;;;;3.31;100.00;95884.03;5070342;28;20110;-71
2022/01/04 16:17:03;;;;;;;10.83;7.30;;;;;;;3.33;100.00;95876.97;5071520;28;20063;-70
2022/01/04 16:22:15;;;;;;;15.63;8.30;;;;;;;3.35;100.00;95873.31;5072330;28;20040;-72
2022/01/04 16:24:42;;;;;;;10.90;7.00;;;;;;;3.37;100.00;95863.59;5073618;28;20499;-70
2022/01/04 16:27:10;;;;;;;9.90;6.60;;;;;;;3.36;100.00;95861.94;5072291;28;20493;-71
2022/01/04 16:29:38;;;;;;;13.77;7.73;;;;;;;3.34;100.00;95845.66;5071383;28;20033;-71
2022/01/04 16:32:05;;;;;;;16.20;7.90;;;;;;;3.33;100.00;95825.75;5071606;28;20040;-71
2022/01/04 16:34:32;;;;;;;10.30;7.03;;;;;;;3.33;100.00;95820.56;5071671;28;20041;-71
2022/01/04 16:36:59;;;;;;;11.53;6.30;;;;;;;3.33;100.00;95814.53;5071294;28;20055;-71
2022/01/04 16:39:28;;;;;;;12.30;7.37;;;;;;;3.33;100.00;95814.53;5071108;28;20041;-71
2022/01/04 16:41:57;;;;;;;38.93;23.73;;;;;;;3.38;100.00;95812.44;5069901;28;20045;-71